createdAt,value
2018-09-11T00:00:08.822Z,99.90
2018-09-11T00:02:37.082Z,99.90
2018-09-11T00:05:05.391Z,99.90
2018-09-11T00:07:33.647Z,99.90
2018-09-11T00:10:01.934Z,99.90
2018-09-11T00:12:30.214Z,99.90
2018-09-11T00:14:58.598Z,99.90
2018-09-11T00:17:26.871Z,99.90
2018-09-11T00:19:55.161Z,99.90
2018-09-11T00:22:23.430Z,99.90
2018-09-11T00:24:51.718Z,99.90
2018-09-11T00:27:19.991Z,99.90
2018-09-11T00:29:48.270Z,99.90
2018-09-11T00:32:16.547Z,99.90
2018-09-11T00:34:44.825Z,99.90
2018-09-11T00:37:13.167Z,99.90
2018-09-11T00:39:41.462Z,99.90
2018-09-11T00:42:09.746Z,99.90
2018-09-11T00:44:38.021Z,99.90
2018-09-11T00:47:06.445Z,99.90
2018-09-11T00:49:34.730Z,99.90
2018-09-11T00:52:03.023Z,99.90
2018-09-11T00:54:31.302Z,99.90
2018-09-11T00:56:59.742Z,99.90
2018-09-11T00:59:28.033Z,99.90
2018-09-11T01:01:56.328Z,99.90
2018-09-11T01:04:24.613Z,99.90
2018-09-11T01:06:52.893Z,99.90
2018-09-11T01:09:21.160Z,99.90
2018-09-11T01:11:49.415Z,99.90
2018-09-11T01:14:17.701Z,99.90
2018-09-11T01:16:46.031Z,99.90
2018-09-11T01:19:14.438Z,99.90
2018-09-11T01:21:42.706Z,99.90
2018-09-11T01:24:10.985Z,99.90
2018-09-11T01:26:39.261Z,99.90
2018-09-11T01:29:07.568Z,99.90
2018-09-11T01:31:35.863Z,99.90
2018-09-11T01:34:04.192Z,99.90
2018-09-11T01:36:32.652Z,99.90
2018-09-11T01:39:01.260Z,99.90
2018-09-11T01:41:29.782Z,99.90
2018-09-11T01:43:58.366Z,99.90
2018-09-11T01:46:26.854Z,99.90
2018-09-11T01:48:55.337Z,99.90
2018-09-11T01:51:23.722Z,99.90
2018-09-11T01:53:52.131Z,99.90
2018-09-11T01:56:20.637Z,99.90
2018-09-11T01:58:49.471Z,99.90
2018-09-11T02:01:17.961Z,99.90
2018-09-11T02:03:46.383Z,99.90
2018-09-11T02:06:14.923Z,99.90
2018-09-11T02:08:43.431Z,99.90
2018-09-11T02:11:11.954Z,99.90
2018-09-11T02:13:40.628Z,99.90
2018-09-11T02:16:09.292Z,99.90
2018-09-11T02:18:37.770Z,99.90
2018-09-11T02:21:06.315Z,99.90
2018-09-11T02:23:34.809Z,99.90
2018-09-11T02:26:03.288Z,99.90
2018-09-11T02:28:31.796Z,99.90
2018-09-11T02:31:00.304Z,99.90
2018-09-11T02:33:28.695Z,99.90
2018-09-11T02:35:57.241Z,99.90
2018-09-11T02:38:25.745Z,99.90
2018-09-11T02:40:54.222Z,99.90
2018-09-11T02:43:22.674Z,99.90
2018-09-11T02:45:51.262Z,99.90
2018-09-11T02:48:19.796Z,99.90
2018-09-11T02:50:48.427Z,99.90
2018-09-11T02:53:16.906Z,99.90
2018-09-11T02:55:45.407Z,99.90
2018-09-11T02:58:13.915Z,99.90
2018-09-11T03:00:42.314Z,99.90
2018-09-11T03:03:10.833Z,99.90
2018-09-11T03:05:39.312Z,99.90
2018-09-11T03:08:07.679Z,99.90
2018-09-11T03:10:36.231Z,99.90
2018-09-11T03:13:04.751Z,99.90
2018-09-11T03:15:33.417Z,99.90
2018-09-11T03:18:01.799Z,99.90
2018-09-11T03:20:30.256Z,99.90
2018-09-11T03:22:58.744Z,99.90
2018-09-11T03:25:27.407Z,99.90
2018-09-11T03:27:55.883Z,99.90
2018-09-11T03:30:24.340Z,99.90
2018-09-11T03:32:52.797Z,99.90
2018-09-11T03:35:21.330Z,99.90
2018-09-11T03:37:49.878Z,99.90
2018-09-11T03:40:18.340Z,99.90
2018-09-11T03:42:46.815Z,99.90
2018-09-11T03:45:15.293Z,99.90
2018-09-11T03:47:44.146Z,99.90
2018-09-11T03:50:12.683Z,99.90
2018-09-11T03:52:41.200Z,99.90
2018-09-11T03:55:09.763Z,99.90
2018-09-11T03:57:38.263Z,99.90
2018-09-11T04:00:06.733Z,99.90
2018-09-11T04:02:35.215Z,99.90
2018-09-11T04:05:03.691Z,99.90
2018-09-11T04:07:32.132Z,99.90
2018-09-11T04:10:00.685Z,99.90
2018-09-11T04:12:29.185Z,99.90
2018-09-11T04:14:57.755Z,99.90
2018-09-11T04:17:31.310Z,99.90
2018-09-11T04:19:59.890Z,99.90
2018-09-11T04:22:28.769Z,99.90
2018-09-11T04:24:57.238Z,99.90
2018-09-11T04:27:25.768Z,99.90
2018-09-11T04:29:54.350Z,99.90
2018-09-11T04:32:22.734Z,99.90
2018-09-11T04:34:51.144Z,99.90
2018-09-11T04:37:19.781Z,99.90
2018-09-11T04:39:48.256Z,99.90
2018-09-11T04:42:16.772Z,99.90
2018-09-11T04:44:45.361Z,99.90
2018-09-11T04:47:14.015Z,99.90
2018-09-11T04:49:42.468Z,99.90
2018-09-11T04:52:10.904Z,99.90
2018-09-11T04:54:39.432Z,99.90
2018-09-11T04:57:07.922Z,99.90
2018-09-11T04:59:36.626Z,99.90
2018-09-11T05:02:05.183Z,99.90
2018-09-11T05:04:33.704Z,99.90
2018-09-11T05:07:02.404Z,99.90
2018-09-11T05:09:31.062Z,99.90
2018-09-11T05:11:59.503Z,99.90
2018-09-11T05:14:28.003Z,99.90
2018-09-11T05:16:56.546Z,99.90
2018-09-11T05:19:25.243Z,99.90
2018-09-11T05:21:53.867Z,99.90
2018-09-11T05:24:22.408Z,99.90
2018-09-11T05:26:50.952Z,99.90
2018-09-11T05:29:19.480Z,99.90
2018-09-11T05:31:48.047Z,99.90
2018-09-11T05:34:16.587Z,99.90
2018-09-11T05:36:45.215Z,99.90
2018-09-11T05:39:13.744Z,99.90
2018-09-11T05:41:43.160Z,99.90
2018-09-11T05:44:11.577Z,99.90
2018-09-11T05:46:40.041Z,99.90
2018-09-11T05:49:10.444Z,99.90
2018-09-11T05:51:40.122Z,99.90
2018-09-11T05:54:08.991Z,99.90
2018-09-11T05:56:37.511Z,99.90
2018-09-11T05:59:07.739Z,99.90
2018-09-11T06:01:36.462Z,99.90
2018-09-11T06:04:05.857Z,99.90
2018-09-11T06:06:34.612Z,99.90
2018-09-11T06:09:03.484Z,99.90
2018-09-11T06:11:32.140Z,99.90
2018-09-11T06:14:00.655Z,99.90
2018-09-11T06:16:29.106Z,99.90
2018-09-11T06:18:57.562Z,99.90
2018-09-11T06:21:26.043Z,99.90
2018-09-11T06:23:54.484Z,99.90
2018-09-11T06:26:22.932Z,99.90
2018-09-11T06:28:51.394Z,99.90
2018-09-11T06:31:20.058Z,99.90
2018-09-11T06:33:48.575Z,99.90
2018-09-11T06:36:17.056Z,99.90
2018-09-11T06:38:45.530Z,99.90
2018-09-11T06:41:14.080Z,99.90
2018-09-11T06:43:42.658Z,99.90
2018-09-11T06:46:11.794Z,99.90
2018-09-11T06:48:40.391Z,99.90
2018-09-11T06:51:08.918Z,99.90
2018-09-11T06:53:37.385Z,99.90
2018-09-11T06:56:05.979Z,99.90
2018-09-11T06:58:34.456Z,99.90
2018-09-11T07:01:02.968Z,99.90
2018-09-11T07:03:31.574Z,99.90
2018-09-11T07:06:03.243Z,99.50
2018-09-11T07:08:34.914Z,98.50
2018-09-11T07:11:03.376Z,97.90
2018-09-11T07:13:31.870Z,97.90
2018-09-11T07:16:00.341Z,97.50
2018-09-11T07:18:28.809Z,96.10
2018-09-11T07:20:57.420Z,96.20
2018-09-11T07:23:25.960Z,97.00
2018-09-11T07:25:54.549Z,97.80
2018-09-11T07:28:22.964Z,99.20
2018-09-11T07:30:51.468Z,99.20
2018-09-11T07:33:19.907Z,97.30
2018-09-11T07:35:48.443Z,98.20
2018-09-11T07:38:17.334Z,97.20
2018-09-11T07:40:45.853Z,97.00
2018-09-11T07:43:14.290Z,97.90
2018-09-11T07:45:42.724Z,97.30
2018-09-11T07:48:11.212Z,96.30
2018-09-11T07:50:39.670Z,94.20
2018-09-11T07:53:08.176Z,95.10
2018-09-11T07:55:36.567Z,97.70
2018-09-11T07:58:05.019Z,96.50
2018-09-11T08:00:33.479Z,95.20
2018-09-11T08:03:02.101Z,96.70
2018-09-11T08:05:30.679Z,96.50
2018-09-11T08:07:59.160Z,99.20
2018-09-11T08:10:27.628Z,99.70
2018-09-11T08:12:56.155Z,97.90
2018-09-11T08:15:24.669Z,97.30
2018-09-11T08:17:53.133Z,96.00
2018-09-11T08:20:21.499Z,95.20
2018-09-11T08:22:49.939Z,93.80
2018-09-11T08:25:18.413Z,93.50
2018-09-11T08:27:46.815Z,94.70
2018-09-11T08:30:15.292Z,95.90
2018-09-11T08:32:43.809Z,96.30
2018-09-11T08:35:18.666Z,95.20
2018-09-11T08:37:47.123Z,94.90
2018-09-11T08:40:15.610Z,95.30
2018-09-11T08:42:44.064Z,93.00
2018-09-11T08:45:12.707Z,93.80
2018-09-11T08:47:41.318Z,94.50
2018-09-11T08:50:09.776Z,96.60
2018-09-11T08:52:38.221Z,98.00
2018-09-11T08:55:06.840Z,97.50
2018-09-11T08:57:35.261Z,96.50
2018-09-11T09:00:03.815Z,96.60
2018-09-11T09:02:32.311Z,97.20
2018-09-11T09:05:00.854Z,97.60
2018-09-11T09:07:29.243Z,98.60
2018-09-11T09:09:57.817Z,98.90
2018-09-11T09:12:26.227Z,98.80
2018-09-11T09:14:54.660Z,99.60
2018-09-11T09:17:23.142Z,98.90
2018-09-11T09:19:51.627Z,98.60
2018-09-11T09:22:20.318Z,98.60
2018-09-11T09:24:48.763Z,97.90
2018-09-11T09:27:17.388Z,98.90
2018-09-11T09:29:45.715Z,98.70
2018-09-11T09:32:14.188Z,98.20
2018-09-11T09:34:42.571Z,97.50
2018-09-11T09:37:11.442Z,94.80
2018-09-11T09:39:39.996Z,94.20
2018-09-11T09:42:08.550Z,92.20
2018-09-11T09:44:37.468Z,93.00
2018-09-11T09:47:06.009Z,94.50
2018-09-11T09:49:34.589Z,93.50
2018-09-11T09:52:04.159Z,94.60
2018-09-11T09:54:32.704Z,95.10
2018-09-11T09:57:01.251Z,95.80
2018-09-11T09:59:29.902Z,93.60
2018-09-11T10:02:03.075Z,93.00
2018-09-11T10:04:32.255Z,93.40
2018-09-11T10:07:03.068Z,93.50
2018-09-11T10:09:31.711Z,93.60
2018-09-11T10:12:00.285Z,93.10
2018-09-11T10:14:28.738Z,93.50
2018-09-11T10:16:57.463Z,91.60
2018-09-11T10:19:25.930Z,91.40
2018-09-11T10:21:54.351Z,93.40
2018-09-11T10:24:22.854Z,92.40
2018-09-11T10:26:51.318Z,90.60
2018-09-11T10:29:19.776Z,90.10
2018-09-11T10:31:48.245Z,88.80
2018-09-11T10:34:16.751Z,90.40
2018-09-11T10:36:45.271Z,91.60
2018-09-11T10:39:13.877Z,88.70
2018-09-11T10:41:42.559Z,85.90
2018-09-11T10:44:13.707Z,83.40
2018-09-11T10:46:42.315Z,85.50
2018-09-11T10:49:10.798Z,82.50
2018-09-11T10:51:39.720Z,88.40
2018-09-11T10:54:08.505Z,89.60
2018-09-11T10:56:37.292Z,86.80
2018-09-11T10:59:05.962Z,90.70
2018-09-11T11:01:34.474Z,86.80
2018-09-11T11:04:03.279Z,88.30
2018-09-11T11:06:31.956Z,90.50
2018-09-11T11:09:00.452Z,87.90
2018-09-11T11:11:28.977Z,87.70
2018-09-11T11:13:58.789Z,84.60
2018-09-11T11:16:27.411Z,84.90
2018-09-11T11:18:55.903Z,86.10
2018-09-11T11:21:24.378Z,88.30
2018-09-11T11:23:52.841Z,91.30
2018-09-11T11:26:21.457Z,88.60
2018-09-11T11:28:50.261Z,86.40
2018-09-11T11:31:19.928Z,83.50
2018-09-11T11:33:48.844Z,84.80
2018-09-11T11:36:17.439Z,83.00
2018-09-11T11:38:46.677Z,84.10
2018-09-11T11:41:15.247Z,81.30
2018-09-11T11:43:43.975Z,81.70
2018-09-11T11:46:12.475Z,77.60
2018-09-11T11:48:40.981Z,77.50
2018-09-11T11:51:09.510Z,72.80
2018-09-11T11:53:37.998Z,76.40
2018-09-11T11:56:06.971Z,76.90
2018-09-11T11:58:35.569Z,72.30
2018-09-11T12:01:04.097Z,73.80
2018-09-11T12:03:36.987Z,75.40
2018-09-11T12:06:05.508Z,78.20
2018-09-11T12:08:33.947Z,77.40
2018-09-11T12:11:02.531Z,75.90
2018-09-11T12:13:31.224Z,74.60
2018-09-11T12:15:59.865Z,72.50
2018-09-11T12:18:29.077Z,74.80
2018-09-11T12:20:57.585Z,74.50
2018-09-11T12:23:26.299Z,74.80
2018-09-11T12:25:54.898Z,70.70
2018-09-11T12:28:24.301Z,70.30
2018-09-11T12:30:53.577Z,69.80
2018-09-11T12:33:23.408Z,70.80
2018-09-11T12:35:51.977Z,66.70
2018-09-11T12:38:20.514Z,64.90
2018-09-11T12:40:50.327Z,66.30
2018-09-11T12:43:18.973Z,69.90
2018-09-11T12:45:47.469Z,73.70
2018-09-11T12:48:17.096Z,68.30
2018-09-11T12:50:45.416Z,71.70
2018-09-11T12:53:13.845Z,68.30
2018-09-11T12:55:43.526Z,68.40
2018-09-11T12:58:12.261Z,67.90
2018-09-11T13:00:40.847Z,68.80
2018-09-11T13:03:09.952Z,71.40
2018-09-11T13:05:38.410Z,62.30
2018-09-11T13:08:06.880Z,64.20
2018-09-11T13:10:35.418Z,67.40
2018-09-11T13:13:04.031Z,73.80
2018-09-11T13:15:32.731Z,63.20
2018-09-11T13:18:01.207Z,67.00
2018-09-11T13:20:29.938Z,66.80
2018-09-11T13:22:58.812Z,69.30
2018-09-11T13:25:27.406Z,70.00
2018-09-11T13:27:56.379Z,73.80
2018-09-11T13:30:24.829Z,74.90
2018-09-11T13:32:53.274Z,73.40
2018-09-11T13:35:21.989Z,68.80
2018-09-11T13:37:50.448Z,67.20
2018-09-11T13:40:19.052Z,68.50
2018-09-11T13:42:47.461Z,68.70
2018-09-11T13:45:15.963Z,66.80
2018-09-11T13:47:44.555Z,68.90
2018-09-11T13:50:13.057Z,65.40
2018-09-11T13:52:42.101Z,66.80
2018-09-11T13:55:10.770Z,64.90
2018-09-11T13:57:39.254Z,65.50
2018-09-11T14:00:07.815Z,65.30
2018-09-11T14:02:36.344Z,65.00
2018-09-11T14:05:05.149Z,64.80
2018-09-11T14:07:33.883Z,60.40
2018-09-11T14:10:02.507Z,61.30
2018-09-11T14:12:31.439Z,60.20
2018-09-11T14:14:59.825Z,62.50
2018-09-11T14:17:28.402Z,61.90
2018-09-11T14:19:56.884Z,61.50
2018-09-11T14:22:25.581Z,63.20
2018-09-11T14:24:54.063Z,65.00
2018-09-11T14:27:22.614Z,66.70
2018-09-11T14:29:51.100Z,65.20
2018-09-11T14:32:19.656Z,63.40
2018-09-11T14:34:48.382Z,63.80
2018-09-11T14:37:16.905Z,62.40
2018-09-11T14:39:45.602Z,67.00
2018-09-11T14:42:14.136Z,62.10
2018-09-11T14:44:42.696Z,64.10
2018-09-11T14:47:11.348Z,64.80
2018-09-11T14:49:39.884Z,66.50
2018-09-11T14:52:08.402Z,64.70
2018-09-11T14:54:36.986Z,67.50
2018-09-11T14:57:05.628Z,63.90
2018-09-11T14:59:34.183Z,67.40
2018-09-11T15:02:02.647Z,64.20
2018-09-11T15:04:31.051Z,62.90
2018-09-11T15:06:59.484Z,64.60
2018-09-11T15:09:27.891Z,64.50
2018-09-11T15:11:56.316Z,67.20
2018-09-11T15:14:24.799Z,67.70
2018-09-11T15:16:53.256Z,67.70
2018-09-11T15:19:21.814Z,66.10
2018-09-11T15:21:50.313Z,65.80
2018-09-11T15:24:19.238Z,70.50
2018-09-11T15:26:47.885Z,70.20
2018-09-11T15:29:16.357Z,73.10
2018-09-11T15:31:44.914Z,73.70
2018-09-11T15:34:13.462Z,75.30
2018-09-11T15:36:41.995Z,76.20
2018-09-11T15:39:10.507Z,79.50
2018-09-11T15:41:39.093Z,79.20
2018-09-11T15:44:07.695Z,78.80
2018-09-11T15:46:36.135Z,79.30
2018-09-11T15:49:04.818Z,79.90
2018-09-11T15:51:33.341Z,79.80
2018-09-11T15:54:01.891Z,81.20
2018-09-11T15:56:30.427Z,81.20
2018-09-11T15:58:58.931Z,81.40
2018-09-11T16:01:27.496Z,82.50
2018-09-11T16:03:56.132Z,84.30
2018-09-11T16:06:24.639Z,82.60
2018-09-11T16:08:53.136Z,86.80
2018-09-11T16:11:21.554Z,85.80
2018-09-11T16:13:50.047Z,83.40
2018-09-11T16:16:18.608Z,85.60
2018-09-11T16:18:47.230Z,86.70
2018-09-11T16:21:15.680Z,87.00
2018-09-11T16:23:44.212Z,86.40
2018-09-11T16:26:12.721Z,86.40
2018-09-11T16:28:41.203Z,86.30
2018-09-11T16:31:09.649Z,87.80
2018-09-11T16:33:38.227Z,87.80
2018-09-11T16:36:06.701Z,89.40
2018-09-11T16:38:35.142Z,89.80
2018-09-11T16:41:03.723Z,89.10
2018-09-11T16:43:32.210Z,89.20
2018-09-11T16:46:00.617Z,90.90
2018-09-11T16:48:29.131Z,90.10
2018-09-11T16:50:57.591Z,92.00
2018-09-11T16:53:26.131Z,90.70
2018-09-11T16:55:54.640Z,91.00
2018-09-11T16:58:23.135Z,92.60
2018-09-11T17:00:52.592Z,93.00
2018-09-11T17:03:21.204Z,92.50
2018-09-11T17:05:49.997Z,93.60
2018-09-11T17:08:18.593Z,94.40
2018-09-11T17:10:47.170Z,94.80
2018-09-11T17:13:15.802Z,96.50
2018-09-11T17:15:44.278Z,98.00
2018-09-11T17:18:12.800Z,99.80
2018-09-11T17:23:19.660Z,99.00
2018-09-11T17:25:48.291Z,99.90
2018-09-11T17:28:16.672Z,99.90
2018-09-11T17:30:44.894Z,99.90
2018-09-11T17:33:13.265Z,99.90
2018-09-11T17:35:41.554Z,99.90
2018-09-11T17:38:32.795Z,99.90
2018-09-11T17:41:01.023Z,99.90
2018-09-11T17:43:29.242Z,99.90
2018-09-11T17:45:57.483Z,99.90
2018-09-11T17:48:25.706Z,99.90
2018-09-11T17:51:10.950Z,99.90
2018-09-11T17:53:39.197Z,99.90
2018-09-11T17:56:07.455Z,99.90
2018-09-11T17:58:35.686Z,99.90
2018-09-11T18:01:04.271Z,99.90
2018-09-11T18:03:32.654Z,99.90
2018-09-11T18:06:10.854Z,99.90
2018-09-11T18:08:39.145Z,99.90
2018-09-11T18:11:07.320Z,99.90
2018-09-11T18:13:35.551Z,99.90
2018-09-11T18:16:03.843Z,99.90
2018-09-11T18:18:32.054Z,99.90
2018-09-11T18:21:00.599Z,99.90
2018-09-11T18:23:28.832Z,99.90
2018-09-11T18:25:57.191Z,99.90
2018-09-11T18:28:25.827Z,99.90
2018-09-11T18:30:54.090Z,99.90
2018-09-11T18:33:22.487Z,99.90
2018-09-11T18:35:50.698Z,99.90
2018-09-11T18:38:18.916Z,99.90
2018-09-11T18:40:47.133Z,99.90
2018-09-11T18:43:15.382Z,99.90
2018-09-11T18:45:57.803Z,99.90
2018-09-11T18:48:27.007Z,99.90
2018-09-11T18:50:55.227Z,99.90
2018-09-11T18:53:23.482Z,99.90
2018-09-11T18:55:51.747Z,99.90
2018-09-11T18:58:19.960Z,99.90
2018-09-11T19:00:48.551Z,99.90
2018-09-11T19:03:16.843Z,99.90
2018-09-11T19:05:45.070Z,99.90
2018-09-11T19:08:13.546Z,99.90
2018-09-11T19:10:42.486Z,99.90
2018-09-11T19:13:10.774Z,99.90
2018-09-11T19:15:39.282Z,99.90
2018-09-11T19:18:07.579Z,99.90
2018-09-11T19:20:36.323Z,99.90
2018-09-11T19:23:04.599Z,99.90
2018-09-11T19:25:38.153Z,99.90
2018-09-11T19:28:06.359Z,99.90
2018-09-11T19:30:34.580Z,99.90
2018-09-11T19:33:08.986Z,99.90
2018-09-11T19:35:37.242Z,99.90
2018-09-11T19:38:13.787Z,99.90
2018-09-11T19:40:42.169Z,99.90
2018-09-11T19:43:10.551Z,99.90
2018-09-11T19:45:38.801Z,99.90
2018-09-11T19:48:07.047Z,99.90
2018-09-11T19:50:35.316Z,99.90
2018-09-11T19:53:04.547Z,99.90
2018-09-11T19:55:32.887Z,99.90
2018-09-11T19:58:01.196Z,99.90
2018-09-11T20:00:29.575Z,99.90
2018-09-11T20:03:05.677Z,99.90
2018-09-11T20:05:33.915Z,99.90
2018-09-11T20:08:02.196Z,99.90
2018-09-11T20:10:31.113Z,99.90
2018-09-11T20:13:01.737Z,99.90
2018-09-11T20:15:30.003Z,99.90
2018-09-11T20:17:58.771Z,99.90
2018-09-11T20:20:27.383Z,99.90
2018-09-11T20:22:55.915Z,99.90
2018-09-11T20:25:24.468Z,99.90
2018-09-11T20:27:53.782Z,99.90
2018-09-11T20:30:22.083Z,99.90
2018-09-11T20:32:57.142Z,99.90
2018-09-11T20:35:25.357Z,99.90
2018-09-11T20:38:06.926Z,99.90
2018-09-11T20:40:35.168Z,99.90
2018-09-11T20:43:03.556Z,99.90
2018-09-11T20:45:31.793Z,99.90
2018-09-11T20:48:00.312Z,99.90
2018-09-11T20:50:28.515Z,99.90
2018-09-11T20:52:56.780Z,99.90
2018-09-11T20:55:25.064Z,99.90
2018-09-11T20:57:53.283Z,99.90
2018-09-11T21:00:21.490Z,99.90
2018-09-11T21:02:50.571Z,99.90
2018-09-11T21:05:18.831Z,99.90
2018-09-11T21:07:47.081Z,99.90
2018-09-11T21:10:15.296Z,99.90
2018-09-11T21:12:43.535Z,99.90
2018-09-11T21:15:12.018Z,99.90
2018-09-11T21:17:40.211Z,99.90
2018-09-11T21:20:08.444Z,99.90
2018-09-11T21:22:36.655Z,99.90
2018-09-11T21:25:04.890Z,99.90
2018-09-11T21:27:33.230Z,99.90
2018-09-11T21:30:01.594Z,99.90
2018-09-11T21:32:30.012Z,99.90
2018-09-11T21:34:58.382Z,99.90
2018-09-11T21:37:26.586Z,99.90
2018-09-11T21:39:54.799Z,99.90
2018-09-11T21:42:23.006Z,99.90
2018-09-11T21:44:51.220Z,99.90
2018-09-11T21:47:19.447Z,99.90
2018-09-11T21:49:47.841Z,99.90
2018-09-11T21:52:16.036Z,99.90
2018-09-11T21:54:44.246Z,99.90
2018-09-11T21:57:12.455Z,99.90
2018-09-11T21:59:40.663Z,99.90
2018-09-11T22:02:08.865Z,99.90
2018-09-11T22:04:37.079Z,99.90
2018-09-11T22:07:05.455Z,99.90
2018-09-11T22:09:33.675Z,99.90
2018-09-11T22:12:01.937Z,99.90
2018-09-11T22:14:30.108Z,99.90
2018-09-11T22:16:58.314Z,99.90
2018-09-11T22:19:26.595Z,99.90
2018-09-11T22:21:54.803Z,99.90
2018-09-11T22:24:23.015Z,99.90
2018-09-11T22:26:51.218Z,99.90
2018-09-11T22:29:19.439Z,99.90
2018-09-11T22:31:47.645Z,99.90
2018-09-11T22:34:15.862Z,99.90
2018-09-11T22:36:44.071Z,99.90
2018-09-11T22:39:12.282Z,99.90
2018-09-11T22:41:40.501Z,99.90
2018-09-11T22:44:08.686Z,99.90
2018-09-11T22:46:36.898Z,99.90
2018-09-11T22:49:05.165Z,99.90
2018-09-11T22:51:33.391Z,99.90
2018-09-11T22:54:01.608Z,99.90
2018-09-11T22:56:29.807Z,99.90
2018-09-11T22:58:58.018Z,99.90
2018-09-11T23:01:26.235Z,99.90
2018-09-11T23:03:54.444Z,99.90
2018-09-11T23:06:23.032Z,99.90
2018-09-11T23:08:51.230Z,99.90
2018-09-11T23:11:19.435Z,99.90
2018-09-11T23:13:47.639Z,99.90
2018-09-11T23:16:15.850Z,99.90
2018-09-11T23:18:44.059Z,99.90
2018-09-11T23:21:12.291Z,99.90
2018-09-11T23:23:40.499Z,99.90
2018-09-11T23:26:08.710Z,99.90
2018-09-11T23:28:36.909Z,99.90
2018-09-11T23:31:05.123Z,99.90
2018-09-11T23:33:33.332Z,99.90
2018-09-11T23:36:01.538Z,99.90
2018-09-11T23:38:29.742Z,99.90
2018-09-11T23:40:57.974Z,99.90
2018-09-11T23:43:26.175Z,99.90
2018-09-11T23:45:54.382Z,99.90
2018-09-11T23:48:22.586Z,99.90
2018-09-11T23:50:50.794Z,99.90
2018-09-11T23:53:19.044Z,99.90
2018-09-11T23:55:47.263Z,99.90
2018-09-11T23:58:15.491Z,99.90
